Quaker Hill, Connecticut
Current Conditions -  °F | °C
As of 12:56 PM on Monday 20 Oct 2014 (Local Time) from KGON Reporting Station
Broken Clouds Broken Clouds  
Wind Chill: 51°   Ceiling: 12000
Heat Index: 51°   Visibility: 10mi
Dew Point: 39°   Wind: 14mph
Humidity: 63%   Direction: 230°SW
Pressure: 30.05"   Gusts: NA
Location:  41.4°N, 72.11°W
Report Text: KGON 201656Z 23012KT 10SM SCT028 BKN120 11/04 A3005 RMK AO2 SLP174 T01060039
Loading
Personal Weather Stations






























Interactive Weather Map
Tropical Storm Tracking
New forecast layout! Learn more

10-Day Weather Forecast

Advertisements
Track Severe Weather on mobile